Time,TemperatureF,DewpointF,PressureIn,WindDirection,WindDirectionDegrees,WindSpeedMPH,WindSpeedGustMPH,Humidity,HourlyPrecipIn,Conditions,Clouds,dailyrainin,SoftwareType,DateUTC
2013-07-26 00:02:00,61.4,55.5,30.07,SSE,165,0.0,0.0,81,0.00,,,0.00,Wunderground v.1.15,2013-07-26 04:02:00,
2013-07-26 00:07:00,61.1,55.6,30.07,SSE,165,0.0,0.0,82,0.00,,,0.00,Wunderground v.1.15,2013-07-26 04:07:00,
2013-07-26 00:12:00,60.5,55.0,30.08,SSE,167,0.0,0.0,82,0.00,,,0.00,Wunderground v.1.15,2013-07-26 04:12:00,
2013-07-26 00:22:00,59.0,54.2,30.08,SSE,167,0.0,0.0,84,0.00,,,0.00,Wunderground v.1.15,2013-07-26 04:22:00,
2013-07-26 00:32:00,58.5,54.0,30.07,SSE,167,0.0,0.0,85,0.00,,,0.00,Wunderground v.1.15,2013-07-26 04:32:00,
2013-07-26 00:42:00,58.4,54.5,30.07,SSE,167,0.0,0.0,87,0.00,,,0.00,Wunderground v.1.15,2013-07-26 04:42:00,
2013-07-26 00:47:00,58.2,54.3,30.07,SSE,167,0.0,0.0,87,0.00,,,0.00,Wunderground v.1.15,2013-07-26 04:47:00,
2013-07-26 00:52:00,58.0,53.8,30.07,SSE,167,0.0,0.0,86,0.00,,,0.00,Wunderground v.1.15,2013-07-26 04:52:00,
2013-07-26 00:57:00,57.8,54.0,30.07,SSE,167,0.0,0.0,87,0.00,,,0.00,Wunderground v.1.15,2013-07-26 04:57:00,
2013-07-26 01:07:00,57.5,53.7,30.07,SSE,167,0.0,0.0,87,0.00,,,0.00,Wunderground v.1.15,2013-07-26 05:07:00,
2013-07-26 01:12:00,57.2,53.7,30.07,SSE,167,0.0,0.0,88,0.00,,,0.00,Wunderground v.1.15,2013-07-26 05:12:00,
2013-07-26 01:22:00,56.9,53.4,30.07,SSE,167,0.0,0.0,88,0.00,,,0.00,Wunderground v.1.15,2013-07-26 05:22:00,
2013-07-26 01:32:00,56.7,53.5,30.07,SSE,167,0.0,0.0,89,0.00,,,0.00,Wunderground v.1.15,2013-07-26 05:32:00,
2013-07-26 01:42:00,57.3,54.4,30.07,SSE,167,0.0,0.0,90,0.00,,,0.00,Wunderground v.1.15,2013-07-26 05:42:00,
2013-07-26 01:52:00,56.8,53.6,30.06,SSE,167,0.0,0.0,89,0.00,,,0.00,Wunderground v.1.15,2013-07-26 05:52:00,
2013-07-26 01:57:00,56.6,53.7,30.06,SSE,167,0.0,0.0,90,0.00,,,0.00,Wunderground v.1.15,2013-07-26 05:57:00,
2013-07-26 02:07:00,56.3,53.4,30.05,SSE,167,0.0,0.0,90,0.00,,,0.00,Wunderground v.1.15,2013-07-26 06:07:00,
2013-07-26 02:17:00,56.2,53.3,30.05,SSE,167,0.0,0.0,90,0.00,,,0.00,Wunderground v.1.15,2013-07-26 06:17:00,
2013-07-26 02:22:00,56.0,53.1,30.05,SSE,167,0.0,0.0,90,0.00,,,0.00,Wunderground v.1.15,2013-07-26 06:22:00,
2013-07-26 02:32:00,55.8,53.2,30.05,South,172,0.0,0.0,91,0.00,,,0.00,Wunderground v.1.15,2013-07-26 06:32:00,
2013-07-26 02:42:00,55.8,53.2,30.05,South,172,0.0,0.0,91,0.00,,,0.00,Wunderground v.1.15,2013-07-26 06:42:00,
2013-07-26 02:52:00,55.5,52.6,30.05,South,172,0.0,0.0,90,0.00,,,0.00,Wunderground v.1.15,2013-07-26 06:52:00,
2013-07-26 02:57:00,55.5,52.6,30.05,South,172,0.0,0.0,90,0.00,,,0.00,Wunderground v.1.15,2013-07-26 06:57:00,
2013-07-26 03:07:00,55.4,52.8,30.05,South,172,0.0,0.0,91,0.00,,,0.00,Wunderground v.1.15,2013-07-26 07:07:00,
2013-07-26 03:12:00,55.5,52.9,30.05,South,172,0.0,0.0,91,0.00,,,0.00,Wunderground v.1.15,2013-07-26 07:12:00,
2013-07-26 03:22:00,55.1,52.5,30.04,South,172,0.0,0.0,91,0.00,,,0.00,Wunderground v.1.15,2013-07-26 07:22:00,
2013-07-26 03:32:00,55.4,53.1,30.04,South,172,0.0,0.0,92,0.00,,,0.00,Wunderground v.1.15,2013-07-26 07:32:00,
2013-07-26 03:37:00,55.5,52.9,30.04,South,172,0.0,0.0,91,0.00,,,0.00,Wunderground v.1.15,2013-07-26 07:37:00,
2013-07-26 03:47:00,55.5,53.2,30.04,South,172,0.0,0.0,92,0.00,,,0.00,Wunderground v.1.15,2013-07-26 07:47:00,
2013-07-26 03:57:00,55.4,53.1,30.04,South,172,0.0,0.0,92,0.00,,,0.00,Wunderground v.1.15,2013-07-26 07:57:00,
2013-07-26 04:07:00,55.5,53.2,30.04,South,172,0.0,0.0,92,0.00,,,0.00,Wunderground v.1.15,2013-07-26 08:07:00,
2013-07-26 04:12:00,55.1,52.5,30.04,South,172,0.0,0.0,91,0.00,,,0.00,Wunderground v.1.15,2013-07-26 08:12:00,
2013-07-26 04:22:00,54.5,51.9,30.04,South,172,0.0,0.0,91,0.00,,,0.00,Wunderground v.1.15,2013-07-26 08:22:00,
2013-07-26 04:32:00,54.2,51.6,30.04,South,172,0.0,0.0,91,0.00,,,0.00,Wunderground v.1.15,2013-07-26 08:32:00,
2013-07-26 04:37:00,54.2,51.9,30.04,South,172,0.0,0.0,92,0.00,,,0.00,Wunderground v.1.15,2013-07-26 08:37:00,
2013-07-26 04:47:00,54.0,51.7,30.04,South,172,0.0,0.0,92,0.00,,,0.00,Wunderground v.1.15,2013-07-26 08:47:00,
2013-07-26 04:57:00,54.1,51.8,30.04,South,172,0.0,0.0,92,0.00,,,0.00,Wunderground v.1.15,2013-07-26 08:57:00,
2013-07-26 05:07:00,54.2,51.9,30.04,South,172,0.0,0.0,92,0.00,,,0.00,Wunderground v.1.15,2013-07-26 09:07:00,
2013-07-26 05:17:00,54.8,52.5,30.04,South,172,0.0,0.0,92,0.00,,,0.00,Wunderground v.1.15,2013-07-26 09:17:00,
2013-07-26 05:27:00,54.9,52.6,30.05,South,173,0.0,0.0,92,0.00,,,0.00,Wunderground v.1.15,2013-07-26 09:27:00,
2013-07-26 05:37:00,54.8,52.5,30.05,South,173,0.0,0.0,92,0.00,,,0.00,Wunderground v.1.15,2013-07-26 09:37:00,
2013-07-26 05:47:00,54.7,52.4,30.05,South,173,0.0,0.0,92,0.00,,,0.00,Wunderground v.1.15,2013-07-26 09:47:00,
2013-07-26 05:57:00,54.8,52.5,30.05,South,173,0.0,0.0,92,0.00,,,0.00,Wunderground v.1.15,2013-07-26 09:57:00,
2013-07-26 06:07:00,54.1,51.8,30.05,South,173,0.0,0.0,92,0.00,,,0.00,Wunderground v.1.15,2013-07-26 10:07:00,
2013-07-26 06:12:00,53.7,51.1,30.04,South,173,0.0,0.0,91,0.00,,,0.00,Wunderground v.1.15,2013-07-26 10:12:00,
2013-07-26 06:22:00,53.7,51.4,30.04,South,172,0.0,0.0,92,0.00,,,0.00,Wunderground v.1.15,2013-07-26 10:22:00,
2013-07-26 06:32:00,54.1,51.8,30.04,South,172,0.0,0.0,92,0.00,,,0.00,Wunderground v.1.15,2013-07-26 10:32:00,
2013-07-26 06:42:00,54.1,51.8,30.04,South,172,0.0,0.0,92,0.00,,,0.00,Wunderground v.1.15,2013-07-26 10:42:00,
2013-07-26 06:52:00,54.5,52.5,30.04,South,172,0.0,0.0,93,0.00,,,0.00,Wunderground v.1.15,2013-07-26 10:52:00,
2013-07-26 06:57:00,54.0,51.7,30.05,South,174,0.0,0.0,92,0.00,,,0.00,Wunderground v.1.15,2013-07-26 10:57:00,
2013-07-26 07:07:00,53.9,51.6,30.05,South,174,0.0,0.0,92,0.00,,,0.00,Wunderground v.1.15,2013-07-26 11:07:00,
2013-07-26 07:17:00,54.7,52.7,30.05,South,174,0.0,0.0,93,0.00,,,0.00,Wunderground v.1.15,2013-07-26 11:17:00,
2013-07-26 07:22:00,55.4,53.4,30.05,South,174,0.0,0.0,93,0.00,,,0.00,Wunderground v.1.15,2013-07-26 11:22:00,
2013-07-26 07:32:00,56.6,54.6,30.05,South,174,0.0,0.0,93,0.00,,,0.00,Wunderground v.1.15,2013-07-26 11:32:00,
2013-07-26 07:42:00,58.8,57.1,30.05,South,174,0.0,0.0,94,0.00,,,0.00,Wunderground v.1.15,2013-07-26 11:42:00,
2013-07-26 07:52:00,59.1,57.1,30.05,South,174,0.0,0.0,93,0.00,,,0.00,Wunderground v.1.15,2013-07-26 11:52:00,
2013-07-26 07:57:00,59.6,57.6,30.05,South,174,0.0,0.0,93,0.00,,,0.00,Wunderground v.1.15,2013-07-26 11:57:00,
2013-07-26 08:07:00,60.5,58.5,30.06,South,175,0.0,0.0,93,0.00,,,0.00,Wunderground v.1.15,2013-07-26 12:07:00,
2013-07-26 08:12:00,60.8,58.8,30.05,SSW,196,0.0,0.0,93,0.00,,,0.00,Wunderground v.1.15,2013-07-26 12:12:00,
2013-07-26 08:22:00,61.4,58.7,30.06,SW,229,0.0,0.0,91,0.00,,,0.00,Wunderground v.1.15,2013-07-26 12:22:00,
2013-07-26 08:32:00,62.8,59.2,30.06,WSW,250,0.0,0.0,88,0.00,,,0.00,Wunderground v.1.15,2013-07-26 12:32:00,
2013-07-26 08:42:00,63.7,59.4,30.06,West,263,2.0,3.0,86,0.00,,,0.00,Wunderground v.1.15,2013-07-26 12:42:00,
2013-07-26 08:52:00,64.5,59.6,30.05,WSW,246,1.0,2.0,84,0.00,,,0.00,Wunderground v.1.15,2013-07-26 12:52:00,
2013-07-26 08:57:00,65.1,59.5,30.06,SW,215,1.0,3.0,82,0.00,,,0.00,Wunderground v.1.15,2013-07-26 12:57:00,
2013-07-26 09:07:00,66.2,60.2,30.06,SW,217,1.0,1.0,81,0.00,,,0.00,Wunderground v.1.15,2013-07-26 13:07:00,
2013-07-26 09:17:00,67.3,60.6,30.06,SW,217,1.0,1.0,79,0.00,,,0.00,Wunderground v.1.15,2013-07-26 13:17:00,
2013-07-26 09:22:00,68.0,60.2,30.05,SSE,165,1.0,1.0,76,0.00,,,0.00,Wunderground v.1.15,2013-07-26 13:22:00,
2013-07-26 09:32:00,68.5,59.9,30.05,SSE,162,1.0,1.0,74,0.00,,,0.00,Wunderground v.1.15,2013-07-26 13:32:00,
2013-07-26 09:42:00,69.5,60.1,30.05,SSE,162,0.0,1.0,72,0.00,,,0.00,Wunderground v.1.15,2013-07-26 13:42:00,
2013-07-26 09:52:00,70.2,59.1,30.05,SSE,168,2.0,2.0,68,0.00,,,0.00,Wunderground v.1.15,2013-07-26 13:52:00,
2013-07-26 09:57:00,70.6,59.1,30.05,South,182,2.0,2.0,67,0.00,,,0.00,Wunderground v.1.15,2013-07-26 13:57:00,
2013-07-26 10:07:00,70.8,59.7,30.05,SSW,194,3.0,3.0,68,0.00,,,0.00,Wunderground v.1.15,2013-07-26 14:07:00,
2013-07-26 10:17:00,71.6,59.6,30.05,SSW,206,2.0,2.0,66,0.00,,,0.00,Wunderground v.1.15,2013-07-26 14:17:00,
2013-07-26 10:27:00,71.9,59.5,30.05,SSE,153,2.0,2.0,65,0.00,,,0.00,Wunderground v.1.15,2013-07-26 14:27:00,
2013-07-26 10:32:00,72.0,59.6,30.04,South,170,2.0,2.0,65,0.00,,,0.00,Wunderground v.1.15,2013-07-26 14:32:00,
2013-07-26 10:37:00,72.2,59.8,30.04,South,186,2.0,2.0,65,0.00,,,0.00,Wunderground v.1.15,2013-07-26 14:37:00,
2013-07-26 10:47:00,72.7,59.8,30.05,SSW,208,3.0,3.0,64,0.00,,,0.00,Wunderground v.1.15,2013-07-26 14:47:00,
2013-07-26 10:52:00,72.8,59.0,30.05,South,172,2.0,3.0,62,0.00,,,0.00,Wunderground v.1.15,2013-07-26 14:52:00,
2013-07-26 10:57:00,73.0,60.1,30.05,SSE,148,2.0,5.0,64,0.00,,,0.00,Wunderground v.1.15,2013-07-26 14:57:00,
2013-07-26 11:07:00,73.8,59.0,30.05,SSW,202,2.0,3.0,60,0.00,,,0.00,Wunderground v.1.15,2013-07-26 15:07:00,
2013-07-26 11:17:00,74.1,59.8,30.05,SSE,159,2.0,2.0,61,0.00,,,0.00,Wunderground v.1.15,2013-07-26 15:17:00,
2013-07-26 11:27:00,73.9,60.1,30.05,SW,214,2.0,2.0,62,0.00,,,0.00,Wunderground v.1.15,2013-07-26 15:27:00,
2013-07-26 11:37:00,74.4,60.1,30.05,South,181,2.0,2.0,61,0.00,,,0.00,Wunderground v.1.15,2013-07-26 15:37:00,
2013-07-26 11:47:00,75.3,59.0,30.05,East,88,3.0,3.0,57,0.00,,,0.00,Wunderground v.1.15,2013-07-26 15:47:00,
2013-07-26 11:57:00,75.2,58.9,30.04,ESE,121,3.0,3.0,57,0.00,,,0.00,Wunderground v.1.15,2013-07-26 15:57:00,
2013-07-26 12:07:00,76.2,59.4,30.04,South,173,2.0,2.0,56,0.00,,,0.00,Wunderground v.1.15,2013-07-26 16:07:00,
2013-07-26 12:17:00,76.2,60.8,30.04,SSW,194,2.0,2.0,59,0.00,,,0.00,Wunderground v.1.15,2013-07-26 16:17:00,
2013-07-26 12:27:00,76.8,59.9,30.03,North,360,2.0,2.0,56,0.00,,,0.00,Wunderground v.1.15,2013-07-26 16:27:00,
2013-07-26 12:37:00,76.6,60.7,30.03,SSE,167,3.0,4.0,58,0.00,,,0.00,Wunderground v.1.15,2013-07-26 16:37:00,
2013-07-26 12:47:00,76.9,61.0,30.02,SE,127,3.0,5.0,58,0.00,,,0.00,Wunderground v.1.15,2013-07-26 16:47:00,
2013-07-26 12:57:00,75.9,59.1,30.02,SSE,166,3.0,5.0,56,0.00,,,0.00,Wunderground v.1.15,2013-07-26 16:57:00,
2013-07-26 13:07:00,75.3,59.0,30.02,ESE,107,3.0,3.0,57,0.00,,,0.00,Wunderground v.1.15,2013-07-26 17:07:00,
2013-07-26 13:12:00,75.5,61.1,30.02,South,176,2.0,5.0,61,0.00,,,0.00,Wunderground v.1.15,2013-07-26 17:12:00,
2013-07-26 13:22:00,75.3,61.4,30.02,East,93,3.0,3.0,62,0.00,,,0.00,Wunderground v.1.15,2013-07-26 17:22:00,
2013-07-26 13:27:00,75.0,59.2,30.01,East,80,3.0,5.0,58,0.00,,,0.00,Wunderground v.1.15,2013-07-26 17:27:00,
2013-07-26 13:37:00,74.9,60.5,30.01,SE,140,3.0,6.0,61,0.00,,,0.00,Wunderground v.1.15,2013-07-26 17:37:00,
2013-07-26 13:47:00,75.9,61.9,30.00,ESE,119,4.0,4.0,62,0.00,,,0.00,Wunderground v.1.15,2013-07-26 17:47:00,
2013-07-26 13:57:00,75.0,60.2,30.00,SE,133,4.0,4.0,60,0.00,,,0.00,Wunderground v.1.15,2013-07-26 17:57:00,
2013-07-26 14:07:00,74.0,61.0,30.00,ENE,78,4.0,4.0,64,0.00,,,0.00,Wunderground v.1.15,2013-07-26 18:07:00,
2013-07-26 14:17:00,73.9,59.6,29.99,East,88,5.0,5.0,61,0.00,,,0.00,Wunderground v.1.15,2013-07-26 18:17:00,
2013-07-26 14:27:00,73.9,61.4,29.99,ESE,103,6.0,8.0,65,0.00,,,0.00,Wunderground v.1.15,2013-07-26 18:27:00,
2013-07-26 14:37:00,73.9,60.5,29.99,East,98,5.0,6.0,63,0.00,,,0.00,Wunderground v.1.15,2013-07-26 18:37:00,
2013-07-26 14:42:00,74.0,60.6,29.99,East,88,5.0,7.0,63,0.00,,,0.00,Wunderground v.1.15,2013-07-26 18:42:00,
2013-07-26 14:52:00,74.1,60.7,29.98,East,80,7.0,7.0,63,0.00,,,0.00,Wunderground v.1.15,2013-07-26 18:52:00,
2013-07-26 14:57:00,74.2,61.2,29.98,ESE,117,7.0,7.0,64,0.00,,,0.00,Wunderground v.1.15,2013-07-26 18:57:00,
2013-07-26 15:07:00,75.8,61.8,29.98,ENE,73,5.0,8.0,62,0.00,,,0.00,Wunderground v.1.15,2013-07-26 19:07:00,
2013-07-26 15:17:00,75.7,61.3,29.97,SE,140,4.0,5.0,61,0.00,,,0.00,Wunderground v.1.15,2013-07-26 19:17:00,
2013-07-26 15:27:00,74.9,61.0,29.97,East,97,5.0,8.0,62,0.00,,,0.00,Wunderground v.1.15,2013-07-26 19:27:00,
2013-07-26 15:37:00,74.8,61.4,29.97,SE,138,4.0,7.0,63,0.00,,,0.00,Wunderground v.1.15,2013-07-26 19:37:00,
2013-07-26 15:42:00,74.6,61.2,29.96,ENE,74,4.0,7.0,63,0.00,,,0.00,Wunderground v.1.15,2013-07-26 19:42:00,
2013-07-26 15:52:00,74.3,60.9,29.96,ESE,123,3.0,5.0,63,0.00,,,0.00,Wunderground v.1.15,2013-07-26 19:52:00,
2013-07-26 15:57:00,74.1,61.1,29.95,East,84,4.0,4.0,64,0.00,,,0.00,Wunderground v.1.15,2013-07-26 19:57:00,
2013-07-26 16:07:00,74.2,61.7,29.95,ESE,108,3.0,3.0,65,0.00,,,0.00,Wunderground v.1.15,2013-07-26 20:07:00,
2013-07-26 16:17:00,74.6,61.6,29.95,East,90,3.0,5.0,64,0.00,,,0.00,Wunderground v.1.15,2013-07-26 20:17:00,
2013-07-26 16:27:00,75.5,63.3,29.95,SE,144,3.0,3.0,66,0.00,,,0.00,Wunderground v.1.15,2013-07-26 20:27:00,
2013-07-26 16:32:00,76.6,63.1,29.95,ESE,115,4.0,8.0,63,0.00,,,0.00,Wunderground v.1.15,2013-07-26 20:32:00,
2013-07-26 16:37:00,77.5,61.1,29.95,SW,219,5.0,7.0,57,0.00,,,0.00,Wunderground v.1.15,2013-07-26 20:37:00,
2013-07-26 16:42:00,78.0,58.9,29.95,South,187,4.0,7.0,52,0.00,,,0.00,Wunderground v.1.15,2013-07-26 20:42:00,
2013-07-26 16:52:00,78.7,62.2,29.94,SW,227,4.0,6.0,57,0.00,,,0.00,Wunderground v.1.15,2013-07-26 20:52:00,
2013-07-26 16:57:00,78.4,60.4,29.94,South,171,6.0,6.0,54,0.00,,,0.00,Wunderground v.1.15,2013-07-26 20:57:00,
2013-07-26 17:07:00,77.4,61.0,29.95,SW,214,6.0,6.0,57,0.00,,,0.00,Wunderground v.1.15,2013-07-26 21:07:00,
2013-07-26 17:12:00,76.7,61.3,29.94,SSW,209,5.0,6.0,59,0.00,,,0.00,Wunderground v.1.15,2013-07-26 21:12:00,
2013-07-26 17:22:00,76.5,60.6,29.94,SSW,208,5.0,5.0,58,0.00,,,0.00,Wunderground v.1.15,2013-07-26 21:22:00,
2013-07-26 17:32:00,76.0,59.7,29.94,SSE,168,7.0,8.0,57,0.00,,,0.00,Wunderground v.1.15,2013-07-26 21:32:00,
2013-07-26 17:42:00,75.5,61.1,29.94,SSW,201,6.0,7.0,61,0.00,,,0.00,Wunderground v.1.15,2013-07-26 21:42:00,
2013-07-26 17:52:00,75.4,61.0,29.93,SW,225,6.0,7.0,61,0.00,,,0.00,Wunderground v.1.15,2013-07-26 21:52:00,
2013-07-26 17:57:00,75.3,59.5,29.93,SSW,196,5.0,5.0,58,0.00,,,0.00,Wunderground v.1.15,2013-07-26 21:57:00,
2013-07-26 18:07:00,75.1,60.3,29.93,SW,227,6.0,6.0,60,0.00,,,0.00,Wunderground v.1.15,2013-07-26 22:07:00,
2013-07-26 18:12:00,74.9,59.6,29.94,WSW,238,6.0,6.0,59,0.00,,,0.00,Wunderground v.1.15,2013-07-26 22:12:00,
2013-07-26 18:17:00,74.8,60.0,29.93,SW,227,6.0,6.0,60,0.00,,,0.00,Wunderground v.1.15,2013-07-26 22:17:00,
2013-07-26 18:27:00,75.1,61.6,29.93,SW,223,5.0,5.0,63,0.00,,,0.00,Wunderground v.1.15,2013-07-26 22:27:00,
2013-07-26 18:32:00,75.7,61.3,29.93,SSW,201,4.0,5.0,61,0.00,,,0.00,Wunderground v.1.15,2013-07-26 22:32:00,
2013-07-26 18:42:00,76.9,61.5,29.93,SSW,201,4.0,5.0,59,0.00,,,0.00,Wunderground v.1.15,2013-07-26 22:42:00,
2013-07-26 18:47:00,76.5,62.0,29.92,SW,222,4.0,6.0,61,0.00,,,0.00,Wunderground v.1.15,2013-07-26 22:47:00,
2013-07-26 18:57:00,75.1,61.2,29.92,SSW,202,3.0,4.0,62,0.00,,,0.00,Wunderground v.1.15,2013-07-26 22:57:00,
2013-07-26 19:07:00,74.5,59.7,29.92,SW,222,5.0,5.0,60,0.00,,,0.00,Wunderground v.1.15,2013-07-26 23:07:00,
2013-07-26 19:12:00,74.3,59.5,29.92,WSW,247,5.0,8.0,60,0.00,,,0.00,Wunderground v.1.15,2013-07-26 23:12:00,
2013-07-26 19:22:00,74.1,60.2,29.92,SSW,209,4.0,5.0,62,0.00,,,0.00,Wunderground v.1.15,2013-07-26 23:22:00,
2013-07-26 19:27:00,74.1,60.2,29.92,SSW,207,4.0,4.0,62,0.00,,,0.00,Wunderground v.1.15,2013-07-26 23:27:00,
2013-07-26 19:37:00,73.7,60.3,29.92,SW,219,3.0,3.0,63,0.00,,,0.00,Wunderground v.1.15,2013-07-26 23:37:00,
2013-07-26 19:42:00,73.5,60.1,29.92,SW,225,3.0,5.0,63,0.00,,,0.00,Wunderground v.1.15,2013-07-26 23:42:00,
2013-07-26 19:52:00,74.2,60.8,29.92,SW,214,3.0,3.0,63,0.00,,,0.00,Wunderground v.1.15,2013-07-26 23:52:00,
2013-07-26 19:57:00,74.2,60.3,29.92,SW,232,3.0,3.0,62,0.00,,,0.00,Wunderground v.1.15,2013-07-26 23:57:00,
2013-07-26 20:07:00,74.0,61.0,29.91,SSW,202,2.0,3.0,64,0.00,,,0.00,Wunderground v.1.15,2013-07-27 00:07:00,
2013-07-26 20:17:00,73.8,61.3,29.91,SSW,198,2.0,2.0,65,0.00,,,0.00,Wunderground v.1.15,2013-07-27 00:17:00,
2013-07-26 20:22:00,73.5,61.9,29.91,South,187,2.0,2.0,67,0.00,,,0.00,Wunderground v.1.15,2013-07-27 00:22:00,
2013-07-26 20:32:00,72.9,61.3,29.91,South,190,3.0,3.0,67,0.00,,,0.00,Wunderground v.1.15,2013-07-27 00:32:00,
2013-07-26 20:42:00,72.5,61.3,29.91,South,190,2.0,2.0,68,0.00,,,0.00,Wunderground v.1.15,2013-07-27 00:42:00,
2013-07-26 20:52:00,71.9,60.8,29.91,South,190,1.0,1.0,68,0.00,,,0.00,Wunderground v.1.15,2013-07-27 00:52:00,
2013-07-26 20:57:00,71.7,61.8,29.91,South,190,1.0,1.0,71,0.00,,,0.00,Wunderground v.1.15,2013-07-27 00:57:00,
2013-07-26 21:07:00,71.2,61.7,29.91,South,190,0.0,0.0,72,0.00,,,0.00,Wunderground v.1.15,2013-07-27 01:07:00,
2013-07-26 21:12:00,70.9,61.0,29.91,South,174,0.0,1.0,71,0.00,,,0.00,Wunderground v.1.15,2013-07-27 01:12:00,
2013-07-26 21:22:00,70.5,61.8,29.91,South,173,0.0,1.0,74,0.00,,,0.00,Wunderground v.1.15,2013-07-27 01:22:00,
2013-07-26 21:32:00,70.1,61.8,29.91,South,173,0.0,0.0,75,0.00,,,0.00,Wunderground v.1.15,2013-07-27 01:32:00,
2013-07-26 21:42:00,69.7,61.8,29.90,South,173,0.0,0.0,76,0.00,,,0.00,Wunderground v.1.15,2013-07-27 01:42:00,
2013-07-26 21:52:00,69.3,61.4,29.90,South,173,0.0,0.0,76,0.00,,,0.00,Wunderground v.1.15,2013-07-27 01:52:00,
2013-07-26 21:57:00,69.3,61.4,29.90,South,172,0.0,0.0,76,0.00,,,0.00,Wunderground v.1.15,2013-07-27 01:57:00,
2013-07-26 22:07:00,69.6,60.9,29.90,South,171,1.0,1.0,74,0.00,,,0.00,Wunderground v.1.15,2013-07-27 02:07:00,
2013-07-26 22:17:00,70.0,61.3,29.90,SSE,167,1.0,1.0,74,0.00,,,0.00,Wunderground v.1.15,2013-07-27 02:17:00,
2013-07-26 22:27:00,70.4,61.7,29.90,SSE,165,1.0,1.0,74,0.00,,,0.00,Wunderground v.1.15,2013-07-27 02:27:00,
2013-07-26 22:37:00,70.5,61.4,29.90,SSE,160,2.0,2.0,73,0.00,,,0.00,Wunderground v.1.15,2013-07-27 02:37:00,
2013-07-26 22:47:00,70.7,61.6,29.89,South,169,2.0,2.0,73,0.00,,,0.00,Wunderground v.1.15,2013-07-27 02:47:00,
2013-07-26 22:57:00,70.7,61.6,29.89,South,180,3.0,3.0,73,0.00,,,0.00,Wunderground v.1.15,2013-07-27 02:57:00,
2013-07-26 23:07:00,70.6,61.9,29.89,South,170,3.0,3.0,74,0.00,,,0.00,Wunderground v.1.15,2013-07-27 03:07:00,
2013-07-26 23:17:00,70.4,61.7,29.89,South,169,3.0,3.0,74,0.00,,,0.00,Wunderground v.1.15,2013-07-27 03:17:00,
2013-07-26 23:27:00,70.4,61.7,29.88,South,174,3.0,4.0,74,0.00,,,0.00,Wunderground v.1.15,2013-07-27 03:27:00,
2013-07-26 23:37:00,70.7,62.0,29.88,South,182,4.0,5.0,74,0.00,,,0.00,Wunderground v.1.15,2013-07-27 03:37:00,
2013-07-26 23:42:00,70.9,61.8,29.88,South,171,5.0,5.0,73,0.00,,,0.00,Wunderground v.1.15,2013-07-27 03:42:00,
2013-07-26 23:52:00,70.9,61.4,29.88,South,191,5.0,5.0,72,0.00,,,0.00,Wunderground v.1.15,2013-07-27 03:52:00,
2013-07-26 23:57:00,70.7,62.0,29.88,South,190,4.0,4.0,74,0.00,,,0.00,Wunderground v.1.15,2013-07-27 03:57:00,